Terminal Aerodrome Forecast
Issued by NWS

Home | Current Version | Previous Version | Text Only | Print | Product List | Glossary On
Versions: 1 2 3 4 5 6 7 8 9 10 11 12 13 14 15 16 17 18 19 20 21 22 23 24 25 26
532
FTUS45 KBOU 050537
TAFBJC
TAF
KBJC 050537Z 0506/0606 VRB04KT P6SM FEW120
     FM050900 25007KT P6SM FEW220
     FM051500 VRB05KT P6SM SCT220
     FM051900 13011KT P6SM FEW100 SCT220
     FM060200 17008KT P6SM SCT080 BKN140
     FM060500 23006KT P6SM FEW080 BKN200=

USA.gov is the U.S. government's official web portal to all federal, state and local government web resources and services.